createdAt,value
2018-08-04T00:02:19.934Z,16.57
2018-08-04T00:04:50.240Z,15.42
2018-08-04T00:07:20.125Z,15.40
2018-08-04T00:09:49.946Z,13.53
2018-08-04T00:12:20.562Z,14.65
2018-08-04T00:14:51.345Z,13.68
2018-08-04T00:17:22.753Z,14.40
2018-08-04T00:19:53.416Z,14.00
2018-08-04T00:22:24.413Z,13.75
2018-08-04T00:24:56.178Z,20.17
2018-08-04T00:27:26.746Z,14.66
2018-08-04T00:29:57.363Z,13.65
2018-08-04T00:32:28.433Z,15.43
2018-08-04T00:35:06.949Z,14.60
2018-08-04T00:37:37.071Z,15.00
2018-08-04T00:40:08.550Z,14.90
2018-08-04T00:42:38.573Z,16.75
2018-08-04T00:45:09.257Z,13.50
2018-08-04T00:47:39.183Z,15.40
2018-08-04T00:50:10.497Z,18.27
2018-08-04T00:52:40.437Z,15.63
2018-08-04T00:55:10.364Z,17.40
2018-08-04T00:57:40.363Z,14.20
2018-08-04T01:00:10.335Z,16.23
2018-08-04T01:02:40.333Z,14.90
2018-08-04T01:05:11.345Z,15.20
2018-08-04T01:07:42.639Z,18.42
2018-08-04T01:10:13.354Z,14.85
2018-08-04T01:12:44.320Z,14.05
2018-08-04T01:15:15.677Z,14.26
2018-08-04T01:17:46.300Z,16.20
2018-08-04T01:20:17.637Z,14.88
2018-08-04T01:22:48.313Z,13.70
2018-08-04T01:25:19.247Z,14.55
2018-08-04T01:27:50.682Z,14.94
2018-08-04T01:30:22.207Z,14.35
2018-08-04T01:32:52.765Z,16.96
2018-08-04T01:35:23.320Z,14.38
2018-08-04T01:37:55.023Z,15.54
2018-08-04T01:40:25.611Z,15.70
2018-08-04T01:42:56.438Z,16.35
2018-08-04T01:45:27.290Z,14.95
2018-08-04T01:47:58.273Z,17.35
2018-08-04T01:50:29.272Z,14.98
2018-08-04T01:53:00.989Z,19.62
2018-08-04T01:55:31.879Z,13.98
2018-08-04T01:58:02.483Z,14.33
2018-08-04T02:00:33.321Z,15.23
2018-08-04T02:03:04.321Z,16.05
2018-08-04T02:05:35.629Z,14.28
2018-08-04T02:08:06.430Z,15.70
2018-08-04T02:10:37.309Z,17.30
2018-08-04T02:13:08.996Z,15.64
2018-08-04T02:15:40.645Z,16.93
2018-08-04T02:18:10.558Z,15.33
2018-08-04T02:20:41.218Z,13.95
2018-08-04T02:23:12.654Z,16.08
2018-08-04T02:25:43.267Z,16.57
2018-08-04T02:28:14.596Z,15.90
2018-08-04T02:30:45.723Z,17.95
2018-08-04T02:33:16.352Z,15.40
2018-08-04T02:35:47.621Z,15.22
2018-08-04T02:38:23.600Z,15.40
2018-08-04T02:40:53.595Z,21.85
2018-08-04T02:43:24.082Z,14.75
2018-08-04T02:45:54.431Z,16.72
2018-08-04T02:48:24.334Z,16.30
2018-08-04T02:50:54.193Z,17.03
2018-08-04T02:53:24.753Z,17.44
2018-08-04T02:55:55.303Z,16.62
2018-08-04T02:58:26.319Z,15.50
2018-08-04T03:00:57.309Z,17.30
2018-08-04T03:03:28.646Z,16.82
2018-08-04T03:05:59.205Z,16.77
2018-08-04T03:08:30.621Z,16.90
2018-08-04T03:11:01.795Z,15.45
2018-08-04T03:13:32.376Z,18.77
2018-08-04T03:16:03.307Z,15.68
2018-08-04T03:18:34.299Z,16.82
2018-08-04T03:21:05.697Z,16.80
2018-08-04T03:23:36.273Z,16.07
2018-08-04T03:26:07.288Z,17.52
2018-08-04T03:28:38.721Z,17.94
2018-08-04T03:31:09.345Z,17.05
2018-08-04T03:33:40.695Z,16.72
2018-08-04T03:36:11.441Z,18.05
2018-08-04T03:38:43.299Z,16.15
2018-08-04T03:41:13.286Z,15.40
2018-08-04T03:43:44.598Z,16.26
2018-08-04T03:46:15.691Z,15.63
2018-08-04T03:48:46.337Z,17.10
2018-08-04T03:51:17.645Z,16.98
2018-08-04T03:53:48.357Z,17.15
2018-08-04T03:56:19.256Z,18.32
2018-08-04T03:58:50.644Z,17.84
2018-08-04T04:01:21.333Z,18.02
2018-08-04T04:03:52.288Z,17.67
2018-08-04T04:06:23.617Z,16.42
2018-08-04T04:08:54.373Z,18.67
2018-08-04T04:11:25.522Z,20.60
2018-08-04T04:13:56.369Z,16.75
2018-08-04T04:16:27.259Z,17.10
2018-08-04T04:18:58.598Z,18.14
2018-08-04T04:21:29.347Z,17.12
2018-08-04T04:24:00.358Z,17.23
2018-08-04T04:26:31.526Z,17.45
2018-08-04T04:29:02.372Z,18.87
2018-08-04T04:31:32.981Z,17.30
2018-08-04T04:34:03.524Z,17.32
2018-08-04T04:36:34.348Z,15.83
2018-08-04T04:39:07.855Z,15.50
2018-08-04T04:41:38.376Z,16.15
2018-08-04T04:44:08.663Z,16.30
2018-08-04T04:46:41.220Z,16.43
2018-08-04T04:49:12.617Z,16.83
2018-08-04T04:51:43.830Z,16.23
2018-08-04T04:54:14.260Z,17.30
2018-08-04T04:56:44.146Z,16.00
2018-08-04T04:59:14.129Z,16.77
2018-08-04T05:01:44.690Z,16.42
2018-08-04T05:04:15.382Z,19.12
2018-08-04T05:06:46.354Z,15.40
2018-08-04T05:09:17.268Z,17.07
2018-08-04T05:11:48.679Z,20.46
2018-08-04T05:14:19.275Z,16.62
2018-08-04T05:16:50.613Z,19.86
2018-08-04T05:19:21.416Z,18.32
2018-08-04T05:21:52.301Z,16.80
2018-08-04T05:24:23.697Z,14.72
2018-08-04T05:26:54.327Z,16.42
2018-08-04T05:29:25.645Z,15.44
2018-08-04T05:31:57.189Z,19.18
2018-08-04T05:34:27.784Z,18.50
2018-08-04T05:36:58.330Z,18.00
2018-08-04T05:39:29.412Z,16.60
2018-08-04T05:42:00.369Z,17.07
2018-08-04T05:44:31.496Z,19.23
2018-08-04T05:47:02.301Z,18.17
2018-08-04T05:49:33.621Z,20.50
2018-08-04T05:52:04.307Z,34.40
2018-08-04T05:54:35.716Z,32.90
2018-08-04T05:57:06.378Z,18.80
2018-08-04T05:59:37.471Z,16.07
2018-08-04T06:02:08.379Z,20.12
2018-08-04T06:04:39.377Z,16.52
2018-08-04T06:07:10.277Z,14.58
2018-08-04T06:09:41.585Z,15.46
2018-08-04T06:12:12.237Z,16.12
2018-08-04T06:14:43.760Z,16.28
2018-08-04T06:17:14.321Z,18.85
2018-08-04T06:19:45.282Z,15.58
2018-08-04T06:22:16.553Z,60.36
2018-08-04T06:24:47.325Z,23.32
2018-08-04T06:27:18.712Z,21.02
2018-08-04T06:29:49.407Z,15.83
2018-08-04T06:32:20.254Z,18.20
2018-08-04T06:34:51.678Z,17.00
2018-08-04T06:37:22.425Z,19.75
2018-08-04T06:39:53.425Z,16.80
2018-08-04T06:42:24.291Z,18.75
2018-08-04T06:44:55.665Z,16.88
2018-08-04T06:47:26.777Z,19.65
2018-08-04T06:49:57.429Z,18.42
2018-08-04T06:52:28.696Z,15.25
2018-08-04T06:54:59.364Z,20.43
2018-08-04T06:57:30.648Z,19.50
2018-08-04T07:00:01.819Z,20.45
2018-08-04T07:02:32.369Z,14.80
2018-08-04T07:05:03.343Z,19.82
2018-08-04T07:07:34.701Z,18.14
2018-08-04T07:10:05.558Z,15.88
2018-08-04T07:12:36.338Z,16.82
2018-08-04T07:15:07.802Z,25.56
2018-08-04T07:17:38.413Z,16.90
2018-08-04T07:20:09.561Z,16.07
2018-08-04T07:22:40.422Z,17.62
2018-08-04T07:25:11.410Z,19.60
2018-08-04T07:27:41.353Z,16.80
2018-08-04T07:30:14.385Z,16.50
2018-08-04T07:32:45.466Z,18.87
2018-08-04T07:35:15.449Z,15.65
2018-08-04T07:37:45.374Z,16.53
2018-08-04T07:40:16.549Z,14.33
2018-08-04T07:42:47.339Z,15.03
2018-08-04T07:45:18.702Z,17.46
2018-08-04T07:47:49.327Z,14.65
2018-08-04T07:50:20.705Z,14.58
2018-08-04T07:52:51.279Z,20.60
2018-08-04T07:55:22.324Z,16.50
2018-08-04T07:57:53.677Z,18.06
2018-08-04T08:00:24.367Z,20.17
2018-08-04T08:02:55.384Z,17.82
2018-08-04T08:05:26.395Z,19.92
2018-08-04T08:07:57.372Z,14.58
2018-08-04T08:10:28.364Z,13.53
2018-08-04T08:12:59.384Z,13.50
2018-08-04T08:15:30.699Z,13.18
2018-08-04T08:18:06.544Z,12.60
2018-08-04T08:20:36.525Z,13.20
2018-08-04T08:23:07.457Z,11.70
2018-08-04T08:25:37.245Z,11.50
2018-08-04T08:28:07.369Z,14.33
2018-08-04T08:30:37.334Z,13.23
2018-08-04T08:33:07.244Z,12.55
2018-08-04T08:35:39.173Z,13.38
2018-08-04T08:38:09.705Z,13.18
2018-08-04T08:40:40.367Z,10.40
2018-08-04T08:43:11.180Z,15.90
2018-08-04T08:45:43.572Z,12.98
2018-08-04T08:48:13.359Z,13.40
2018-08-04T08:50:44.392Z,10.60
2018-08-04T08:53:15.447Z,12.82
2018-08-04T08:55:46.355Z,14.60
2018-08-04T08:58:17.736Z,12.43
2018-08-04T09:00:48.460Z,9.93
2018-08-04T09:03:19.344Z,10.75
2018-08-04T09:05:50.674Z,10.56
2018-08-04T09:08:21.326Z,11.68
2018-08-04T09:10:52.336Z,11.88
2018-08-04T09:13:23.254Z,9.68
2018-08-04T09:15:54.625Z,11.12
2018-08-04T09:18:25.205Z,12.60
2018-08-04T09:20:56.793Z,12.94
2018-08-04T09:23:27.375Z,9.13
2018-08-04T09:25:58.309Z,10.58
2018-08-04T09:28:30.019Z,9.96
2018-08-04T09:31:00.705Z,13.50
2018-08-04T09:33:31.340Z,12.65
2018-08-04T09:36:02.272Z,8.28
2018-08-04T09:38:33.269Z,7.95
2018-08-04T09:41:04.700Z,8.08
2018-08-04T09:43:35.452Z,10.85
2018-08-04T09:46:06.836Z,7.70
2018-08-04T09:48:37.364Z,13.18
2018-08-04T09:51:08.354Z,7.87
2018-08-04T09:53:39.262Z,9.08
2018-08-04T09:56:10.572Z,8.86
2018-08-04T09:58:41.367Z,12.82
2018-08-04T10:01:17.113Z,8.45
2018-08-04T10:03:47.001Z,10.47
2018-08-04T10:06:17.438Z,8.58
2018-08-04T10:08:47.232Z,7.63
2018-08-04T10:11:17.561Z,12.87
2018-08-04T10:13:47.670Z,9.77
2018-08-04T10:16:18.767Z,7.28
2018-08-04T10:18:49.837Z,7.62
2018-08-04T10:21:24.242Z,7.80
2018-08-04T10:23:54.999Z,5.53
2018-08-04T10:26:25.377Z,5.56
2018-08-04T10:28:55.237Z,5.77
2018-08-04T10:31:25.116Z,5.77
2018-08-04T10:33:55.693Z,5.86
2018-08-04T10:36:26.368Z,7.35
2018-08-04T10:38:57.349Z,7.03
2018-08-04T10:41:28.256Z,5.55
2018-08-04T10:43:59.656Z,5.86
2018-08-04T10:46:30.331Z,6.17
2018-08-04T10:49:01.334Z,6.92
2018-08-04T10:51:32.288Z,6.10
2018-08-04T10:54:03.345Z,7.22
2018-08-04T10:56:34.392Z,5.65
2018-08-04T10:59:05.393Z,7.17
2018-08-04T11:01:36.387Z,5.50
2018-08-04T11:04:08.217Z,5.60
2018-08-04T11:06:38.674Z,9.20
2018-08-04T11:09:11.775Z,7.85
2018-08-04T11:11:42.177Z,6.37
2018-08-04T11:14:12.141Z,6.23
2018-08-04T11:16:42.711Z,6.42
2018-08-04T11:19:13.329Z,9.60
2018-08-04T11:21:44.357Z,6.15
2018-08-04T11:24:15.444Z,7.65
2018-08-04T11:26:46.293Z,6.40
2018-08-04T11:29:17.391Z,7.70
2018-08-04T11:31:49.278Z,5.82
2018-08-04T11:34:19.354Z,9.25
2018-08-04T11:36:51.321Z,5.58
2018-08-04T11:39:21.316Z,6.40
2018-08-04T11:41:52.292Z,5.33
2018-08-04T11:44:23.290Z,6.50
2018-08-04T11:46:54.264Z,7.60
2018-08-04T11:49:25.228Z,6.55
2018-08-04T11:51:56.556Z,5.30
2018-08-04T11:54:27.238Z,4.90
2018-08-04T11:56:58.616Z,5.04
2018-08-04T11:59:29.342Z,8.08
2018-08-04T12:02:00.290Z,7.33
2018-08-04T12:04:31.399Z,5.45
2018-08-04T12:07:02.285Z,4.95
2018-08-04T12:09:33.747Z,4.97
2018-08-04T12:12:04.327Z,6.15
2018-08-04T12:14:35.319Z,5.97
2018-08-04T12:17:06.386Z,6.08
2018-08-04T12:19:37.333Z,5.80
2018-08-04T12:22:08.621Z,7.60
2018-08-04T12:24:39.329Z,6.67
2018-08-04T12:27:10.318Z,6.22
2018-08-04T12:29:40.202Z,6.45
2018-08-04T12:32:11.748Z,5.74
2018-08-04T12:34:42.306Z,10.60
2018-08-04T12:37:13.299Z,6.45
2018-08-04T12:39:44.341Z,5.90
2018-08-04T12:42:15.578Z,6.05
2018-08-04T12:44:46.229Z,5.25
2018-08-04T12:47:17.646Z,6.86
2018-08-04T12:49:48.338Z,5.55
2018-08-04T12:52:19.533Z,8.10
2018-08-04T12:54:50.324Z,7.78
2018-08-04T12:57:21.660Z,8.83
2018-08-04T12:59:53.292Z,5.28
2018-08-04T13:02:23.333Z,5.45
2018-08-04T13:04:54.306Z,5.28
2018-08-04T13:07:25.337Z,4.55
2018-08-04T13:09:56.850Z,8.88
2018-08-04T13:12:27.501Z,11.18
2018-08-04T13:14:57.336Z,5.37
2018-08-04T13:17:28.407Z,6.05
2018-08-04T13:19:59.275Z,4.85
2018-08-04T13:22:30.745Z,4.88
2018-08-04T13:25:01.370Z,4.58
2018-08-04T13:27:34.548Z,6.00
2018-08-04T13:30:05.110Z,7.60
2018-08-04T13:32:34.959Z,6.13
2018-08-04T13:35:05.475Z,11.10
2018-08-04T13:37:35.438Z,5.70
2018-08-04T13:40:06.601Z,4.65
2018-08-04T13:42:37.339Z,6.17
2018-08-04T13:45:08.759Z,8.80
2018-08-04T13:47:39.367Z,5.28
2018-08-04T13:50:10.362Z,5.03
2018-08-04T13:52:41.271Z,10.20
2018-08-04T13:55:12.277Z,10.72
2018-08-04T13:57:43.548Z,4.98
2018-08-04T14:00:14.290Z,6.33
2018-08-04T14:02:45.312Z,5.28
2018-08-04T14:05:16.365Z,7.47
2018-08-04T14:07:47.325Z,5.90
2018-08-04T14:10:18.405Z,7.62
2018-08-04T14:12:49.245Z,4.90
2018-08-04T14:15:20.552Z,5.24
2018-08-04T14:17:51.253Z,4.60
2018-08-04T14:20:22.596Z,5.34
2018-08-04T14:22:53.319Z,6.10
2018-08-04T14:25:24.252Z,11.55
2018-08-04T14:27:55.589Z,9.10
2018-08-04T14:30:26.266Z,8.73
2018-08-04T14:32:57.629Z,4.94
2018-08-04T14:35:28.921Z,4.80
2018-08-04T14:37:59.410Z,5.12
2018-08-04T14:40:30.277Z,14.30
2018-08-04T14:43:01.337Z,6.33
2018-08-04T14:45:32.288Z,5.08
2018-08-04T14:48:03.271Z,5.47
2018-08-04T14:50:34.616Z,8.36
2018-08-04T14:53:05.260Z,10.82
2018-08-04T14:55:36.547Z,9.32
2018-08-04T14:58:07.397Z,4.92
2018-08-04T15:00:45.054Z,5.85
2018-08-04T15:03:15.014Z,6.13
2018-08-04T15:05:44.921Z,9.93
2018-08-04T15:08:14.892Z,8.97
2018-08-04T15:10:44.927Z,6.12
2018-08-04T15:13:15.471Z,7.40
2018-08-04T15:15:45.410Z,6.17
2018-08-04T15:18:15.537Z,9.30
2018-08-04T15:20:46.245Z,6.70
2018-08-04T15:23:17.304Z,7.78
2018-08-04T15:25:47.247Z,6.10
2018-08-04T15:28:18.218Z,6.03
2018-08-04T15:30:49.555Z,5.92
2018-08-04T15:33:20.732Z,6.53
2018-08-04T15:35:51.388Z,6.42
2018-08-04T15:38:22.381Z,7.42
2018-08-04T15:40:53.668Z,8.78
2018-08-04T15:43:24.352Z,5.75
2018-08-04T15:45:54.295Z,7.65
2018-08-04T15:48:26.640Z,6.25
2018-08-04T15:50:56.480Z,5.83
2018-08-04T15:53:27.286Z,6.72
2018-08-04T15:55:58.273Z,6.60
2018-08-04T15:58:29.291Z,6.67
2018-08-04T16:01:00.316Z,8.95
2018-08-04T16:03:39.160Z,9.08
2018-08-04T16:06:09.229Z,7.33
2018-08-04T16:08:39.083Z,10.07
2018-08-04T16:11:09.029Z,13.47
2018-08-04T16:13:38.974Z,14.03
2018-08-04T16:16:09.375Z,8.96
2018-08-04T16:18:39.257Z,7.70
2018-08-04T16:21:09.222Z,22.90
2018-08-04T16:23:39.424Z,26.85
2018-08-04T16:26:10.318Z,19.45
2018-08-04T16:28:41.250Z,18.00
2018-08-04T16:31:12.822Z,11.02
2018-08-04T16:33:43.365Z,9.25
2018-08-04T16:36:14.307Z,10.40
2018-08-04T16:38:45.619Z,14.98
2018-08-04T16:41:16.329Z,15.35
2018-08-04T16:43:47.292Z,29.30
2018-08-04T16:46:24.938Z,19.57
2018-08-04T16:48:55.943Z,14.17
2018-08-04T16:51:25.880Z,21.03
2018-08-04T16:53:56.229Z,30.37
2018-08-04T16:56:26.045Z,16.97
2018-08-04T16:58:56.433Z,22.84
2018-08-04T17:01:26.621Z,31.27
2018-08-04T17:03:57.194Z,29.87
2018-08-04T17:06:27.081Z,19.90
2018-08-04T17:08:57.089Z,15.20
2018-08-04T17:11:27.652Z,29.70
2018-08-04T17:13:59.188Z,35.05
2018-08-04T17:16:29.217Z,24.85
2018-08-04T17:19:00.314Z,34.00
2018-08-04T17:21:31.282Z,27.42
2018-08-04T17:24:02.603Z,35.22
2018-08-04T17:26:33.259Z,26.93
2018-08-04T17:29:04.625Z,36.14
2018-08-04T17:31:35.163Z,36.38
2018-08-04T17:34:05.721Z,14.14
2018-08-04T17:36:36.367Z,19.57
2018-08-04T17:39:09.777Z,18.00
2018-08-04T17:41:40.477Z,21.47
2018-08-04T17:44:10.334Z,13.75
2018-08-04T17:46:40.182Z,16.45
2018-08-04T17:49:11.845Z,17.02
2018-08-04T17:51:42.384Z,12.90
2018-08-04T17:54:13.347Z,17.12
2018-08-04T17:56:44.253Z,20.05
2018-08-04T17:59:15.758Z,20.30
2018-08-04T18:01:46.909Z,22.95
2018-08-04T18:04:17.434Z,26.15
2018-08-04T18:06:48.309Z,25.50
2018-08-04T18:09:19.360Z,27.62
2018-08-04T18:11:50.393Z,22.13
2018-08-04T18:14:21.334Z,20.23
2018-08-04T18:16:52.405Z,18.85
2018-08-04T18:19:23.313Z,32.50
2018-08-04T18:21:54.304Z,30.30
2018-08-04T18:24:25.732Z,21.10
2018-08-04T18:26:56.394Z,28.70
2018-08-04T18:29:27.352Z,20.32
2018-08-04T18:31:58.287Z,22.85
2018-08-04T18:34:28.225Z,33.65
2018-08-04T18:36:59.743Z,26.32
2018-08-04T18:39:30.527Z,22.67
2018-08-04T18:42:01.337Z,35.68
2018-08-04T18:44:32.837Z,26.80
2018-08-04T18:47:03.628Z,18.12
2018-08-04T18:49:34.351Z,17.15
2018-08-04T18:52:06.364Z,22.02
2018-08-04T18:54:36.352Z,24.20
2018-08-04T18:57:07.639Z,23.15
2018-08-04T18:59:38.461Z,23.95
2018-08-04T19:02:09.373Z,26.02
2018-08-04T19:04:40.252Z,19.02
2018-08-04T19:07:11.614Z,15.54
2018-08-04T19:09:42.337Z,21.55
2018-08-04T19:12:13.282Z,19.55
2018-08-04T19:14:44.689Z,14.72
2018-08-04T19:17:15.843Z,18.65
2018-08-04T19:19:46.405Z,19.65
2018-08-04T19:22:17.352Z,14.18
2018-08-04T19:24:48.287Z,18.80
2018-08-04T19:27:19.642Z,15.32
2018-08-04T19:29:50.353Z,19.90
2018-08-04T19:32:21.351Z,22.05
2018-08-04T19:34:52.429Z,33.90
2018-08-04T19:37:23.333Z,27.95
2018-08-04T19:39:54.427Z,26.90
2018-08-04T19:42:26.249Z,27.82
2018-08-04T19:44:56.241Z,23.75
2018-08-04T19:47:27.709Z,23.78
2018-08-04T19:49:58.359Z,29.02
2018-08-04T19:52:29.394Z,31.48
2018-08-04T19:55:00.378Z,24.77
2018-08-04T19:57:31.397Z,32.13
2018-08-04T20:00:02.323Z,31.23
2018-08-04T20:02:33.646Z,31.20
2018-08-04T20:05:04.257Z,33.60
2018-08-04T20:07:36.404Z,22.84
2018-08-04T20:10:06.475Z,37.70
2018-08-04T20:12:37.264Z,26.00
2018-08-04T20:15:08.846Z,25.24
2018-08-04T20:17:39.631Z,27.00
2018-08-04T20:20:10.512Z,22.90
2018-08-04T20:22:41.374Z,25.17
2018-08-04T20:25:12.623Z,23.25
2018-08-04T20:27:43.357Z,27.37
2018-08-04T20:30:14.394Z,19.23
2018-08-04T20:32:46.540Z,22.77
2018-08-04T20:35:16.623Z,29.90
2018-08-04T20:37:47.390Z,26.07
2018-08-04T20:40:18.439Z,34.15
2018-08-04T20:42:49.359Z,33.65
2018-08-04T20:45:20.629Z,34.75
2018-08-04T20:47:51.348Z,26.48
2018-08-04T20:50:22.863Z,32.82
2018-08-04T20:52:53.781Z,23.77
2018-08-04T20:55:24.535Z,30.25
2018-08-04T20:57:55.929Z,19.95
2018-08-04T21:00:26.584Z,30.43
2018-08-04T21:02:57.517Z,31.10
2018-08-04T21:05:28.526Z,26.37
2018-08-04T21:07:59.661Z,20.92
2018-08-04T21:10:30.397Z,23.95
2018-08-04T21:13:02.619Z,24.12
2018-08-04T21:15:33.614Z,26.60
2018-08-04T21:18:03.736Z,23.30
2018-08-04T21:20:34.634Z,20.52
2018-08-04T21:23:05.265Z,21.77
2018-08-04T21:25:37.095Z,24.66
2018-08-04T21:28:07.677Z,21.20
2018-08-04T21:30:38.650Z,20.15
2018-08-04T21:33:09.307Z,25.95
2018-08-04T21:35:41.472Z,21.57
2018-08-04T21:38:11.523Z,25.67
2018-08-04T21:40:42.745Z,20.30
2018-08-04T21:43:13.437Z,20.82
2018-08-04T21:45:44.706Z,23.60
2018-08-04T21:48:15.469Z,26.10
2018-08-04T21:50:46.360Z,25.17
2018-08-04T21:53:18.379Z,24.20
2018-08-04T21:55:48.784Z,27.53
2018-08-04T21:58:19.454Z,27.07
2018-08-04T22:00:56.352Z,22.48
2018-08-04T22:03:26.723Z,23.13
2018-08-04T22:05:56.816Z,25.55
2018-08-04T22:08:37.366Z,19.87
2018-08-04T22:11:07.887Z,21.30
2018-08-04T22:13:37.894Z,26.10
2018-08-04T22:16:09.913Z,22.90
2018-08-04T22:18:40.207Z,23.23
2018-08-04T22:21:10.026Z,20.63
2018-08-04T22:23:39.996Z,22.37
2018-08-04T22:26:10.402Z,24.33
2018-08-04T22:28:40.535Z,21.50
2018-08-04T22:31:11.287Z,25.30
2018-08-04T22:33:41.302Z,22.93
2018-08-04T22:36:11.169Z,24.70
2018-08-04T22:38:41.374Z,32.80
2018-08-04T22:41:11.830Z,20.87
2018-08-04T22:43:41.892Z,23.97
2018-08-04T22:46:17.259Z,21.60
2018-08-04T22:48:49.189Z,24.23
2018-08-04T22:51:24.266Z,20.50
2018-08-04T22:53:54.109Z,20.63
2018-08-04T22:56:24.109Z,25.50
2018-08-04T22:58:53.977Z,20.73
2018-08-04T23:01:23.954Z,19.87
2018-08-04T23:03:53.954Z,19.57
2018-08-04T23:06:23.917Z,24.20
2018-08-04T23:08:53.889Z,21.57
2018-08-04T23:11:23.822Z,19.20
2018-08-04T23:13:53.829Z,19.10
2018-08-04T23:16:23.756Z,17.10
2018-08-04T23:18:53.646Z,16.30
2018-08-04T23:21:23.648Z,18.50
2018-08-04T23:23:54.140Z,17.57
2018-08-04T23:26:23.981Z,16.80
2018-08-04T23:28:54.580Z,20.00
2018-08-04T23:31:26.059Z,19.88
2018-08-04T23:33:56.616Z,19.00
2018-08-04T23:36:27.443Z,18.30
2018-08-04T23:38:58.428Z,19.02
2018-08-04T23:41:29.373Z,17.95
2018-08-04T23:44:00.387Z,16.10
2018-08-04T23:46:31.309Z,17.95
2018-08-04T23:49:02.666Z,16.02
2018-08-04T23:51:33.356Z,14.60
2018-08-04T23:54:04.364Z,14.38
2018-08-04T23:56:35.320Z,17.45
2018-08-04T23:59:06.413Z,16.12
